Time;durP1;ratioP1;P1;durP2;ratioP2;P2;SDS_P1;SDS_P2;PMS_P1;PMS_P2;Temp;Humidity;BMP_temperature;BMP_pressure;BME280_temperature;BME280_humidity;BME280_pressure;Samples;Min_cycle;Max_cycle;Signal;HPM_P1;HPM_P2
2022/04/29 00:00:07;;;;;;;9.27;2.15;;;6.50;99.90;;;;;;5070512;28;20047;-77
2022/04/29 00:02:34;;;;;;;11.80;1.60;;;6.50;99.90;;;;;;5087394;28;20047;-77
2022/04/29 00:05:00;;;;;;;10.88;2.53;;;6.50;99.90;;;;;;5071602;28;20040;-78
2022/04/29 00:07:26;;;;;;;10.10;2.55;;;6.50;99.90;;;;;;5088622;28;20078;-78
2022/04/29 00:09:52;;;;;;;13.73;2.70;;;7.00;99.90;;;;;;5090056;28;20046;-78
2022/04/29 00:12:19;;;;;;;6.78;1.33;;;6.50;99.90;;;;;;5087285;28;20115;-78
2022/04/29 00:14:45;;;;;;;13.15;2.22;;;6.40;99.90;;;;;;5087771;28;20586;-78
2022/04/29 00:17:11;;;;;;;6.32;1.85;;;6.50;99.90;;;;;;5088085;28;20044;-78
2022/04/29 00:19:38;;;;;;;7.50;1.80;;;6.50;99.90;;;;;;5087187;28;20051;-78
2022/04/29 00:22:05;;;;;;;4.28;1.92;;;6.40;99.90;;;;;;5088403;28;20335;-78
2022/04/29 00:24:31;;;;;;;7.20;1.65;;;6.40;99.90;;;;;;5086770;28;20392;-78
2022/04/29 00:26:58;;;;;;;3.00;1.50;;;6.40;99.90;;;;;;5089093;28;20073;-78
2022/04/29 00:29:24;;;;;;;4.65;2.05;;;6.40;99.90;;;;;;5087856;28;20395;-78
2022/04/29 00:31:51;;;;;;;6.10;1.42;;;6.40;99.90;;;;;;5087905;28;20175;-77
2022/04/29 00:34:17;;;;;;;5.65;1.60;;;6.40;99.90;;;;;;5087820;28;20040;-77
2022/04/29 00:36:43;;;;;;;4.63;1.90;;;6.40;99.90;;;;;;5088603;28;20083;-77
2022/04/29 00:39:09;;;;;;;9.43;1.90;;;6.70;99.90;;;;;;5085744;28;20424;-77
2022/04/29 00:41:35;;;;;;;8.27;2.20;;;6.40;99.90;;;;;;5086417;28;20050;-77
2022/04/29 00:44:09;;;;;;;10.20;2.08;;;6.30;99.90;;;;;;5088761;28;20483;-77
2022/04/29 00:46:39;;;;;;;6.93;2.97;;;6.30;99.90;;;;;;5087020;28;20387;-77
2022/04/29 00:49:07;;;;;;;4.93;2.10;;;6.30;99.90;;;;;;5086658;28;20521;-78
2022/04/29 00:51:33;;;;;;;15.32;2.05;;;6.30;99.90;;;;;;5087435;28;20040;-78
2022/04/29 00:54:01;;;;;;;5.85;1.60;;;6.20;99.90;;;;;;5087527;28;20165;-78
2022/04/29 00:56:29;;;;;;;5.65;2.22;;;6.20;99.90;;;;;;5070104;28;20127;-78
2022/04/29 00:59:04;;;;;;;7.13;2.20;;;6.20;99.90;;;;;;5087230;28;20037;-77
2022/04/29 01:01:34;;;;;;;7.05;2.70;;;6.10;99.90;;;;;;5086923;28;20047;-77
2022/04/29 01:04:02;;;;;;;4.75;2.10;;;6.10;99.90;;;;;;5087118;28;20399;-77
2022/04/29 01:06:28;;;;;;;7.68;1.83;;;6.10;99.90;;;;;;5087592;28;20125;-77
2022/04/29 01:08:54;;;;;;;4.03;2.22;;;6.10;99.90;;;;;;5086011;28;20468;-77
2022/04/29 01:11:23;;;;;;;5.95;2.13;;;6.80;99.90;;;;;;5086716;28;20036;-77
2022/04/29 01:13:50;;;;;;;9.68;2.05;;;6.00;99.90;;;;;;5087956;28;20115;-77
2022/04/29 01:16:17;;;;;;;6.50;2.58;;;6.00;99.90;;;;;;5086808;28;20421;-78
2022/04/29 01:18:43;;;;;;;7.75;2.22;;;6.10;99.90;;;;;;5086763;28;20089;-78
2022/04/29 01:21:09;;;;;;;7.65;2.42;;;5.90;99.90;;;;;;5086663;28;20044;-78
2022/04/29 01:23:35;;;;;;;6.93;2.42;;;6.40;99.90;;;;;;5087063;28;20046;-78
2022/04/29 01:26:02;;;;;;;13.02;2.88;;;5.90;99.90;;;;;;5087010;28;20071;-78
2022/04/29 01:28:29;;;;;;;5.45;2.30;;;5.90;99.90;;;;;;5085597;28;20051;-78
2022/04/29 01:30:57;;;;;;;9.38;2.58;;;5.80;99.90;;;;;;5087880;28;20047;-78
2022/04/29 01:33:25;;;;;;;6.97;3.53;;;5.80;99.90;;;;;;5068458;28;20047;-78
2022/04/29 01:35:51;;;;;;;6.28;2.95;;;6.30;99.90;;;;;;5086641;28;20044;-78
2022/04/29 01:38:17;;;;;;;11.88;3.40;;;6.90;99.90;;;;;;5087986;28;20484;-77
2022/04/29 01:40:43;;;;;;;12.48;3.97;;;5.80;99.90;;;;;;5069795;28;20514;-77
2022/04/29 01:43:09;;;;;;;6.95;3.00;;;5.80;99.90;;;;;;5086114;28;20044;-77
2022/04/29 01:45:35;;;;;;;5.30;2.85;;;5.90;99.90;;;;;;5085419;28;20102;-77
2022/04/29 01:48:00;;;;;;;7.60;3.72;;;5.90;99.90;;;;;;5068802;28;20060;-77
2022/04/29 01:50:26;;;;;;;7.90;3.08;;;5.90;99.90;;;;;;5084548;28;20403;-77
2022/04/29 01:52:52;;;;;;;8.18;3.35;;;5.90;99.90;;;;;;5052919;28;20048;-76
2022/04/29 01:55:18;;;;;;;6.40;2.92;;;5.90;99.90;;;;;;5068535;28;20429;-77
2022/04/29 01:57:48;;;;;;;8.05;3.22;;;5.90;99.90;;;;;;5068426;28;20128;-77
2022/04/29 02:00:14;;;;;;;5.00;2.90;;;5.90;99.90;;;;;;5087481;28;20239;-78
2022/04/29 02:02:39;;;;;;;5.43;3.58;;;5.90;99.90;;;;;;5085192;28;20356;-78
2022/04/29 02:05:05;;;;;;;12.10;3.45;;;6.10;99.90;;;;;;5085823;28;20128;-78
2022/04/29 02:07:31;;;;;;;11.88;3.30;;;5.90;99.90;;;;;;5050726;28;20491;-78
2022/04/29 02:09:57;;;;;;;12.38;3.03;;;6.70;99.90;;;;;;5087275;28;20040;-78
2022/04/29 02:12:22;;;;;;;4.38;2.88;;;5.90;99.90;;;;;;5085986;28;20407;-76
2022/04/29 02:14:48;;;;;;;6.65;3.40;;;5.90;99.90;;;;;;5051595;28;20085;-77
2022/04/29 02:17:14;;;;;;;4.68;2.78;;;5.90;99.90;;;;;;5085047;28;20040;-77
2022/04/29 02:19:40;;;;;;;3.55;2.10;;;5.90;99.90;;;;;;5084712;28;20087;-77
2022/04/29 02:22:08;;;;;;;9.80;3.13;;;5.90;99.90;;;;;;5068536;28;20040;-77
2022/04/29 02:24:33;;;;;;;5.47;3.03;;;5.90;99.90;;;;;;5084335;28;20412;-78
2022/04/29 02:27:00;;;;;;;6.15;3.05;;;5.90;99.90;;;;;;5068906;28;20051;-78
2022/04/29 02:29:29;;;;;;;7.35;2.67;;;5.90;99.90;;;;;;5085716;28;20040;-77
2022/04/29 02:31:56;;;;;;;5.00;2.58;;;5.90;99.90;;;;;;5086040;28;20040;-77
2022/04/29 02:34:23;;;;;;;6.13;3.05;;;6.60;99.90;;;;;;5067750;28;20090;-77
2022/04/29 02:36:49;;;;;;;9.05;3.35;;;6.00;99.90;;;;;;5084143;28;20044;-77
2022/04/29 02:39:15;;;;;;;7.97;2.85;;;6.10;99.90;;;;;;5068820;28;20048;-77
2022/04/29 02:41:41;;;;;;;5.20;2.42;;;6.00;99.90;;;;;;5050441;28;20048;-77
2022/04/29 02:44:06;;;;;;;6.70;2.83;;;6.00;99.90;;;;;;5085209;28;20051;-78
2022/04/29 02:46:33;;;;;;;5.97;2.65;;;6.10;99.90;;;;;;5085084;28;20044;-78
2022/04/29 02:48:59;;;;;;;6.50;2.88;;;6.60;99.90;;;;;;5050889;28;20054;-77
2022/04/29 02:51:25;;;;;;;9.68;3.10;;;5.90;99.90;;;;;;5084125;28;20072;-78
2022/04/29 02:53:51;;;;;;;6.82;3.10;;;5.90;99.90;;;;;;5084131;28;20040;-77
2022/04/29 02:56:17;;;;;;;8.95;2.75;;;5.90;99.90;;;;;;5084906;28;20048;-77
2022/04/29 02:58:44;;;;;;;7.53;2.97;;;5.90;99.90;;;;;;5050755;28;20067;-77
2022/04/29 03:01:09;;;;;;;7.18;3.20;;;5.90;99.90;;;;;;5051834;28;20063;-79
2022/04/29 03:03:35;;;;;;;9.35;2.85;;;6.80;99.90;;;;;;5036323;28;20048;-77
2022/04/29 03:06:01;;;;;;;8.65;3.45;;;6.00;99.90;;;;;;5071991;28;20415;-78
2022/04/29 03:08:27;;;;;;;4.15;3.05;;;6.00;99.90;;;;;;5088975;28;20055;-77
2022/04/29 03:10:52;;;;;;;6.05;3.00;;;6.00;99.90;;;;;;5089481;28;20047;-77
2022/04/29 03:13:18;;;;;;;6.70;2.50;;;6.00;99.90;;;;;;5090333;28;20043;-78
2022/04/29 03:15:44;;;;;;;10.70;3.53;;;6.00;99.90;;;;;;5087849;28;20286;-78
2022/04/29 03:18:20;;;;;;;5.68;3.08;;;6.00;99.90;;;;;;5089266;28;20407;-77
2022/04/29 03:20:49;;;;;;;3.45;2.95;;;6.20;99.90;;;;;;5088002;28;20052;-77
2022/04/29 03:23:15;;;;;;;5.13;3.00;;;6.30;99.90;;;;;;5088058;28;20249;-76
2022/04/29 03:25:41;;;;;;;5.82;3.00;;;6.00;99.90;;;;;;5088137;28;20217;-79
2022/04/29 03:28:07;;;;;;;11.75;3.10;;;6.00;99.90;;;;;;5087353;28;20047;-77
2022/04/29 03:30:34;;;;;;;11.57;3.40;;;6.00;99.90;;;;;;5088507;28;20075;-78
2022/04/29 03:33:02;;;;;;;6.30;3.33;;;6.00;99.90;;;;;;5087793;28;20520;-77
2022/04/29 03:35:28;;;;;;;6.68;3.53;;;6.00;99.90;;;;;;5088652;28;20457;-77
2022/04/29 03:37:54;;;;;;;5.30;3.25;;;6.00;99.90;;;;;;5087295;28;20075;-77
2022/04/29 03:40:22;;;;;;;6.22;3.20;;;6.00;99.90;;;;;;5087645;28;20051;-78
2022/04/29 03:42:57;;;;;;;6.25;3.22;;;6.90;99.90;;;;;;5088039;28;20036;-78
2022/04/29 03:45:26;;;;;;;10.32;3.55;;;6.00;99.90;;;;;;5070459;28;20158;-78
2022/04/29 03:47:54;;;;;;;5.82;3.08;;;6.00;99.90;;;;;;5088194;28;20044;-78
2022/04/29 03:50:23;;;;;;;6.90;3.33;;;6.00;99.90;;;;;;5069758;28;20040;-78
2022/04/29 03:52:57;;;;;;;5.53;3.60;;;6.10;99.90;;;;;;5054927;28;20438;-78
2022/04/29 03:55:25;;;;;;;6.63;4.07;;;6.10;99.90;;;;;;5087073;28;20048;-78
2022/04/29 03:57:53;;;;;;;6.03;3.42;;;6.10;99.90;;;;;;5087064;28;20056;-78
2022/04/29 04:00:19;;;;;;;7.15;3.30;;;6.10;99.90;;;;;;5071789;28;20324;-77
2022/04/29 04:02:46;;;;;;;10.93;3.45;;;6.10;99.90;;;;;;5086418;28;20123;-76
2022/04/29 04:05:12;;;;;;;7.32;3.45;;;6.10;99.90;;;;;;5088089;28;20062;-76
2022/04/29 04:07:38;;;;;;;7.53;3.78;;;6.20;99.90;;;;;;5069448;28;20040;-78
2022/04/29 04:10:05;;;;;;;6.20;3.55;;;6.90;99.90;;;;;;5070033;28;20042;-78
2022/04/29 04:12:57;;;;;;;5.32;3.58;;;6.20;99.90;;;;;;5087168;28;20434;-78
2022/04/29 04:15:26;;;;;;;6.43;3.63;;;6.70;99.90;;;;;;5083470;28;20418;-78
2022/04/29 04:17:51;;;;;;;6.75;3.72;;;6.20;99.90;;;;;;5087890;28;20044;-78
2022/04/29 04:20:20;;;;;;;14.02;3.53;;;6.30;99.90;;;;;;5053903;28;20098;-77
2022/04/29 04:22:46;;;;;;;4.97;3.13;;;6.30;99.90;;;;;;5088495;28;20040;-76
2022/04/29 04:25:14;;;;;;;10.02;3.95;;;6.30;99.90;;;;;;5069647;28;20410;-77
2022/04/29 04:27:41;;;;;;;9.85;3.35;;;6.30;99.90;;;;;;5086258;28;20079;-77
2022/04/29 04:30:08;;;;;;;7.15;3.83;;;6.30;99.90;;;;;;5087628;28;20479;-77
2022/04/29 04:32:35;;;;;;;6.30;3.50;;;6.30;99.90;;;;;;5069668;28;20063;-77
2022/04/29 04:35:01;;;;;;;6.20;3.63;;;6.30;99.90;;;;;;5087906;28;20103;-78
2022/04/29 04:37:28;;;;;;;13.00;3.25;;;6.40;99.90;;;;;;5087873;28;20040;-77
2022/04/29 04:39:58;;;;;;;6.95;3.70;;;6.40;99.90;;;;;;5087046;28;20395;-77
2022/04/29 04:42:23;;;;;;;7.85;3.60;;;6.50;99.90;;;;;;5086765;28;20426;-77
2022/04/29 04:44:50;;;;;;;7.15;4.18;;;6.50;99.90;;;;;;5052629;28;20036;-79
2022/04/29 04:47:17;;;;;;;9.38;3.83;;;6.50;99.90;;;;;;5088407;28;20060;-77
2022/04/29 04:49:43;;;;;;;12.30;3.75;;;6.60;99.90;;;;;;5087149;28;20055;-77
2022/04/29 04:52:09;;;;;;;10.98;3.97;;;6.60;99.90;;;;;;5087119;28;20123;-77
2022/04/29 04:54:35;;;;;;;7.68;3.70;;;6.70;99.90;;;;;;5087331;28;20097;-78
2022/04/29 04:57:02;;;;;;;10.82;3.50;;;6.80;99.90;;;;;;5086680;28;20062;-78
2022/04/29 04:59:28;;;;;;;6.32;3.40;;;6.80;99.90;;;;;;5086286;28;20102;-77
2022/04/29 05:01:53;;;;;;;11.95;3.95;;;6.90;99.90;;;;;;5086088;28;20479;-77
2022/04/29 05:04:20;;;;;;;4.47;3.55;;;7.10;99.90;;;;;;5086651;28;20047;-78
2022/04/29 05:06:46;;;;;;;9.40;4.43;;;7.10;99.90;;;;;;5085256;28;20048;-78
2022/04/29 05:09:12;;;;;;;9.52;4.30;;;7.70;99.90;;;;;;5087915;28;20040;-78
2022/04/29 05:11:38;;;;;;;7.47;3.90;;;7.30;99.90;;;;;;5086790;28;20044;-78
2022/04/29 05:14:04;;;;;;;6.72;3.65;;;7.60;99.90;;;;;;5087600;28;20131;-78
2022/04/29 05:16:30;;;;;;;8.52;3.72;;;7.60;99.90;;;;;;5087236;28;20084;-78
2022/04/29 05:18:56;;;;;;;12.73;3.90;;;7.70;99.90;;;;;;5087078;28;20551;-77
2022/04/29 05:21:22;;;;;;;5.65;3.30;;;7.80;99.90;;;;;;5086530;28;20056;-76
2022/04/29 05:23:47;;;;;;;7.30;3.70;;;7.80;99.90;;;;;;5086588;28;20387;-77
2022/04/29 05:26:13;;;;;;;7.65;2.97;;;7.90;99.90;;;;;;5087379;28;20036;-78
2022/04/29 05:28:39;;;;;;;12.75;3.33;;;8.10;99.90;;;;;;5086407;28;20048;-81
2022/04/29 05:31:07;;;;;;;6.07;3.67;;;8.10;99.90;;;;;;5087408;28;20035;-78
2022/04/29 05:33:35;;;;;;;9.20;3.65;;;8.10;99.90;;;;;;5086471;28;20040;-80
2022/04/29 05:36:01;;;;;;;5.10;2.85;;;8.20;99.90;;;;;;5085414;28;20048;-79
2022/04/29 05:43:57;;;;;;;9.02;3.42;;;8.30;99.90;;;;;;5085757;28;20475;-79
2022/04/29 05:46:23;;;;;;;9.68;3.55;;;8.50;99.90;;;;;;5087228;28;20086;-79
2022/04/29 05:48:48;;;;;;;4.68;3.10;;;9.10;99.90;;;;;;5087909;28;20055;-79
2022/04/29 05:51:14;;;;;;;7.22;3.17;;;8.40;99.90;;;;;;5088369;28;20044;-78
2022/04/29 05:53:40;;;;;;;5.35;2.60;;;8.50;99.90;;;;;;5087429;28;20094;-76
2022/04/29 05:56:06;;;;;;;5.00;2.67;;;8.50;99.90;;;;;;5090656;28;20050;-76
2022/04/29 05:58:32;;;;;;;8.00;2.20;;;8.60;99.90;;;;;;5090617;28;20130;-78
2022/04/29 06:00:58;;;;;;;3.80;2.22;;;8.60;99.90;;;;;;5091495;28;20493;-79
2022/04/29 06:03:24;;;;;;;4.72;2.30;;;8.60;99.90;;;;;;5088196;28;20044;-78
2022/04/29 06:05:50;;;;;;;5.97;2.25;;;8.60;99.90;;;;;;5086431;28;20479;-79
2022/04/29 06:08:16;;;;;;;7.35;2.72;;;9.10;99.90;;;;;;5088871;28;20065;-79
2022/04/29 06:10:42;;;;;;;4.88;2.22;;;8.70;99.90;;;;;;5087354;28;20040;-78
2022/04/29 06:13:08;;;;;;;4.85;2.30;;;9.10;99.90;;;;;;5089372;28;20168;-79
2022/04/29 06:15:35;;;;;;;3.83;2.03;;;8.80;99.90;;;;;;5053020;28;20058;-79
2022/04/29 06:18:01;;;;;;;7.60;2.00;;;8.80;99.90;;;;;;5086445;28;20101;-79
2022/04/29 06:20:27;;;;;;;6.35;2.05;;;8.80;99.90;;;;;;5087682;28;20052;-79
2022/04/29 06:22:53;;;;;;;6.35;2.40;;;8.90;99.90;;;;;;5087204;28;20460;-79
2022/04/29 06:25:20;;;;;;;10.18;2.38;;;9.00;99.90;;;;;;5086944;28;20050;-79
2022/04/29 06:27:46;;;;;;;3.45;2.00;;;9.00;99.90;;;;;;5069238;28;20052;-79
2022/04/29 06:30:13;;;;;;;5.95;1.77;;;9.10;99.90;;;;;;5088218;28;20036;-76
2022/04/29 06:32:39;;;;;;;4.57;2.45;;;9.10;99.90;;;;;;5086782;28;20068;-79
2022/04/29 06:35:06;;;;;;;6.22;2.00;;;9.20;99.90;;;;;;5070398;28;20079;-79
2022/04/29 06:37:33;;;;;;;4.30;2.05;;;9.30;99.90;;;;;;5070514;28;20455;-79
2022/04/29 06:39:58;;;;;;;6.47;2.20;;;9.40;99.90;;;;;;5090950;28;20036;-78
2022/04/29 06:42:24;;;;;;;4.32;1.45;;;9.50;99.90;;;;;;5092863;28;20047;-79
2022/04/29 06:44:50;;;;;;;4.63;1.88;;;9.40;99.90;;;;;;5092230;28;20378;-80
2022/04/29 06:47:17;;;;;;;3.95;2.08;;;9.50;99.90;;;;;;5041186;28;20534;-79
2022/04/29 06:49:43;;;;;;;5.85;1.77;;;8.60;99.90;;;;;;5090379;28;20127;-80
2022/04/29 06:52:09;;;;;;;6.05;1.92;;;9.60;99.90;;;;;;5091770;28;20093;-80
2022/04/29 06:54:35;;;;;;;3.92;2.08;;;9.60;99.90;;;;;;5091766;28;20043;-79
2022/04/29 06:57:01;;;;;;;5.82;1.75;;;9.60;99.90;;;;;;5073088;28;20051;-78
2022/04/29 06:59:27;;;;;;;5.10;1.77;;;9.60;99.90;;;;;;5072854;28;20106;-79
2022/04/29 07:01:53;;;;;;;7.85;2.08;;;9.70;99.90;;;;;;5091546;28;20048;-79
2022/04/29 07:04:19;;;;;;;6.10;2.08;;;9.80;99.90;;;;;;5073926;28;20044;-78
2022/04/29 07:06:45;;;;;;;7.90;1.70;;;9.80;99.90;;;;;;5091039;28;20054;-79
2022/04/29 07:09:10;;;;;;;4.50;1.70;;;9.80;99.90;;;;;;5091327;28;20063;-80
2022/04/29 07:11:36;;;;;;;4.32;1.70;;;9.90;99.90;;;;;;5090287;28;20110;-79
2022/04/29 07:14:02;;;;;;;4.05;1.48;;;10.20;99.90;;;;;;5090206;28;20048;-80
2022/04/29 07:16:30;;;;;;;3.00;1.52;;;10.20;99.90;;;;;;5089200;28;20044;-80
2022/04/29 07:18:57;;;;;;;4.72;1.65;;;11.60;99.90;;;;;;5071801;28;20047;-79
2022/04/29 07:21:23;;;;;;;5.93;1.67;;;10.40;99.90;;;;;;5090416;28;20100;-80
2022/04/29 07:23:49;;;;;;;3.22;1.48;;;10.40;99.90;;;;;;5088731;28;20445;-80
2022/04/29 07:26:15;;;;;;;6.25;1.20;;;10.40;99.90;;;;;;5055923;28;20155;-80
2022/04/29 07:28:41;;;;;;;5.35;1.42;;;10.40;99.90;;;;;;5055091;28;20048;-80
2022/04/29 07:31:07;;;;;;;2.63;0.90;;;10.40;99.90;;;;;;5090939;28;20530;-80
2022/04/29 07:33:33;;;;;;;1.65;0.90;;;10.30;99.90;;;;;;5088635;28;20048;-79
2022/04/29 07:41:45;;;;;;;2.08;0.90;;;10.40;99.90;;;;;;5089947;28;20119;-79
2022/04/29 07:44:15;;;;;;;9.70;1.90;;;10.40;99.90;;;;;;5088293;28;20036;-80
2022/04/29 07:46:43;;;;;;;3.35;1.08;;;10.70;99.90;;;;;;5089664;28;20047;-79
2022/04/29 07:49:09;;;;;;;3.38;1.00;;;10.40;99.90;;;;;;5086999;28;20056;-79
2022/04/29 07:51:36;;;;;;;2.35;0.70;;;10.40;99.90;;;;;;5088716;28;20077;-79
2022/04/29 07:54:03;;;;;;;3.83;1.17;;;10.40;99.90;;;;;;5089027;28;20052;-79
2022/04/29 07:56:29;;;;;;;4.88;1.15;;;10.50;99.90;;;;;;5089180;28;20044;-79
2022/04/29 07:58:55;;;;;;;3.15;1.13;;;10.50;99.90;;;;;;5089278;28;20051;-78
2022/04/29 08:01:21;;;;;;;10.43;0.88;;;11.00;99.90;;;;;;5054045;28;20047;-79
2022/04/29 08:03:47;;;;;;;2.97;1.00;;;10.70;99.90;;;;;;5088086;28;20037;-79
2022/04/29 08:06:13;;;;;;;1.58;0.93;;;10.80;99.90;;;;;;5069869;28;20036;-78
2022/04/29 08:08:38;;;;;;;1.77;0.77;;;10.60;99.90;;;;;;5071086;28;20129;-79
2022/04/29 08:11:05;;;;;;;2.80;0.68;;;10.60;99.90;;;;;;5088346;28;20090;-79
2022/04/29 08:13:32;;;;;;;0.80;0.70;;;10.70;99.90;;;;;;5087037;28;20047;-79
2022/04/29 08:16:01;;;;;;;2.45;0.65;;;11.00;99.90;;;;;;5088913;28;20123;-79
2022/04/29 08:18:26;;;;;;;1.52;0.50;;;10.80;99.90;;;;;;5086630;28;20040;-79
2022/04/29 08:20:53;;;;;;;3.35;0.95;;;10.90;99.90;;;;;;5089001;28;20120;-79
2022/04/29 08:23:18;;;;;;;3.72;0.77;;;11.60;99.90;;;;;;5086348;28;20102;-79
2022/04/29 08:25:44;;;;;;;2.05;0.57;;;11.10;99.90;;;;;;5087435;28;20040;-79
2022/04/29 08:28:10;;;;;;;3.03;0.90;;;11.10;99.90;;;;;;5087986;28;20048;-78
2022/04/29 08:30:36;;;;;;;3.75;0.95;;;11.10;99.90;;;;;;5088310;28;20044;-77
2022/04/29 08:33:02;;;;;;;8.32;1.10;;;11.20;99.90;;;;;;5086581;28;20052;-78
2022/04/29 08:35:29;;;;;;;3.00;0.60;;;11.20;99.90;;;;;;5069828;28;20097;-80
2022/04/29 08:37:57;;;;;;;1.70;0.80;;;11.20;99.90;;;;;;5070221;28;20028;-79
2022/04/29 08:40:24;;;;;;;2.53;0.98;;;11.20;99.90;;;;;;5086547;28;20121;-79
2022/04/29 08:42:50;;;;;;;2.92;1.02;;;11.30;99.90;;;;;;5070314;28;20036;-79
2022/04/29 08:45:18;;;;;;;6.28;1.38;;;11.30;99.90;;;;;;5086289;28;20032;-80
2022/04/29 08:47:46;;;;;;;2.22;0.90;;;11.40;99.90;;;;;;5069556;28;20052;-79
2022/04/29 08:50:17;;;;;;;1.80;0.75;;;11.60;99.90;;;;;;5069570;28;20496;-80
2022/04/29 08:52:44;;;;;;;2.65;1.27;;;11.70;99.90;;;;;;5086555;28;20436;-78
2022/04/29 09:00:44;;;;;;;5.18;1.08;;;12.40;99.90;;;;;;5087244;28;20054;-78
2022/04/29 09:03:18;;;;;;;3.67;1.05;;;12.00;99.90;;;;;;5086730;28;20087;-79
2022/04/29 09:05:45;;;;;;;3.20;1.38;;;12.00;99.90;;;;;;5087365;28;20406;-78
2022/04/29 09:08:16;;;;;;;3.97;1.00;;;12.10;99.90;;;;;;5086631;28;20116;-78
2022/04/29 09:10:49;;;;;;;2.22;0.80;;;12.10;99.90;;;;;;5069819;28;20514;-76
2022/04/29 09:13:18;;;;;;;2.75;0.77;;;12.10;99.90;;;;;;5086229;28;20072;-78
2022/04/29 09:15:51;;;;;;;3.13;1.10;;;12.10;99.90;;;;;;5085807;28;20564;-78
2022/04/29 09:18:37;;;;;;;6.57;1.00;;;12.20;99.90;;;;;;5085847;28;20044;-77
2022/04/29 09:21:11;;;;;;;6.45;1.27;;;12.20;99.90;;;;;;5069657;28;20052;-77
2022/04/29 09:23:42;;;;;;;3.85;1.25;;;12.10;99.90;;;;;;5085461;28;20130;-77
2022/04/29 09:26:24;;;;;;;3.70;1.10;;;12.00;99.90;;;;;;5085447;28;20048;-77
2022/04/29 09:28:53;;;;;;;1.42;1.10;;;11.90;99.90;;;;;;5069164;28;20105;-77
2022/04/29 09:31:19;;;;;;;5.50;1.58;;;11.90;99.90;;;;;;5084998;28;20108;-78
2022/04/29 09:33:55;;;;;;;5.75;1.23;;;11.90;99.90;;;;;;5052746;28;20086;-78
2022/04/29 09:36:23;;;;;;;2.53;1.50;;;11.70;99.90;;;;;;5084994;28;20048;-78
2022/04/29 09:41:54;;;;;;;3.85;1.58;;;11.70;99.90;;;;;;5087175;28;20115;-78
2022/04/29 09:44:38;;;;;;;6.80;1.33;;;11.70;99.90;;;;;;5086663;28;20036;-78
2022/04/29 09:47:14;;;;;;;5.45;1.63;;;11.70;99.90;;;;;;5087078;28;20089;-78
2022/04/29 09:49:50;;;;;;;2.90;1.05;;;11.70;99.90;;;;;;5086396;28;20102;-79
2022/04/29 09:52:21;;;;;;;8.32;1.50;;;11.70;99.90;;;;;;5086200;28;20055;-78
2022/04/29 09:54:47;;;;;;;5.90;1.52;;;11.60;99.90;;;;;;5068486;28;20046;-78
2022/04/29 09:57:23;;;;;;;2.75;1.55;;;11.50;99.90;;;;;;5034510;28;20047;-78
2022/04/29 09:59:54;;;;;;;5.03;1.85;;;11.50;99.90;;;;;;5068983;28;20087;-78
2022/04/29 10:02:22;;;;;;;1.23;1.10;;;11.50;99.90;;;;;;5067749;28;20048;-78
2022/04/29 10:04:49;;;;;;;1.92;0.98;;;11.50;99.90;;;;;;5084712;28;20044;-78
2022/04/29 10:07:20;;;;;;;2.85;1.30;;;11.40;99.90;;;;;;5086466;28;20047;-79
2022/04/29 10:09:50;;;;;;;5.07;1.88;;;11.70;99.90;;;;;;5067491;28;20040;-77
2022/04/29 10:12:18;;;;;;;8.82;1.70;;;11.40;99.90;;;;;;5068362;28;20051;-78
2022/04/29 10:14:47;;;;;;;4.75;1.65;;;11.40;99.90;;;;;;5084603;28;20044;-78
2022/04/29 10:22:53;;;;;;;;;;;11.20;99.90;;;;;;5085630;28;20052;-77
2022/04/29 10:25:22;;;;;;;4.25;1.90;;;11.10;99.90;;;;;;5069625;28;20283;-76
2022/04/29 10:27:53;;;;;;;4.35;1.70;;;11.00;99.90;;;;;;5085003;28;20050;-77
2022/04/29 10:30:37;;;;;;;4.97;1.70;;;10.90;99.90;;;;;;5084994;28;20044;-78
2022/04/29 10:33:08;;;;;;;5.18;1.70;;;10.90;99.90;;;;;;5068204;28;20126;-78
2022/04/29 10:35:39;;;;;;;8.55;1.88;;;10.90;99.90;;;;;;5067322;28;20483;-77
2022/04/29 10:38:34;;;;;;;2.35;1.42;;;10.80;99.90;;;;;;5085337;28;20050;-78
2022/04/29 10:41:30;;;;;;;5.15;1.60;;;11.20;99.90;;;;;;5085403;28;20113;-77
2022/04/29 10:43:59;;;;;;;2.85;1.25;;;11.00;99.90;;;;;;5077109;28;20052;-77
2022/04/29 10:46:35;;;;;;;5.43;1.48;;;11.00;99.90;;;;;;5085310;28;20079;-78
2022/04/29 10:49:23;;;;;;;5.63;1.85;;;11.00;99.90;;;;;;5084899;28;20086;-78
2022/04/29 10:51:56;;;;;;;5.53;2.05;;;11.00;99.90;;;;;;5067597;28;20079;-77
2022/04/29 10:54:34;;;;;;;2.17;1.98;;;11.00;99.90;;;;;;5084958;28;20048;-77
2022/04/29 10:57:02;;;;;;;3.83;1.65;;;11.00;99.90;;;;;;5068606;28;20055;-81
2022/04/29 10:59:47;;;;;;;6.43;1.67;;;11.00;99.90;;;;;;5052572;28;20101;-80
2022/04/29 11:02:23;;;;;;;4.32;1.40;;;11.00;99.90;;;;;;5067507;28;20131;-79
2022/04/29 11:04:49;;;;;;;3.05;1.33;;;11.10;99.90;;;;;;5084534;28;20052;-78
2022/04/29 11:07:38;;;;;;;3.53;1.33;;;11.10;99.90;;;;;;5086858;28;20036;-77
2022/04/29 11:10:06;;;;;;;3.13;1.10;;;11.30;99.90;;;;;;5086384;28;20185;-78
2022/04/29 11:12:34;;;;;;;3.75;1.23;;;11.30;99.90;;;;;;5085340;28;20087;-79
2022/04/29 11:15:10;;;;;;;2.53;1.45;;;11.50;99.90;;;;;;5085075;28;20068;-80
2022/04/29 11:17:37;;;;;;;5.68;0.98;;;11.30;99.90;;;;;;5068270;28;20044;-79
2022/04/29 11:20:24;;;;;;;1.50;1.00;;;11.40;99.90;;;;;;5086571;28;20112;-78
2022/04/29 11:25:59;;;;;;;2.88;0.88;;;11.70;99.90;;;;;;5089508;28;20082;-79
